sensor_id;sensor_type;location;lat;lon;timestamp;P1;durP1;ratioP1;P2;durP2;ratioP2
70818;SDS011;58439;51.046;13.692;2022-10-30T00:01:50;49.22;;;22.42;;
70818;SDS011;58439;51.046;13.692;2022-10-30T00:04:17;51.65;;;22.40;;
70818;SDS011;58439;51.046;13.692;2022-10-30T00:06:45;44.90;;;23.13;;
70818;SDS011;58439;51.046;13.692;2022-10-30T00:09:16;58.05;;;22.73;;
70818;SDS011;58439;51.046;13.692;2022-10-30T00:11:44;53.92;;;23.77;;
70818;SDS011;58439;51.046;13.692;2022-10-30T00:14:11;56.92;;;22.75;;
70818;SDS011;58439;51.046;13.692;2022-10-30T00:16:49;49.22;;;21.88;;
70818;SDS011;58439;51.046;13.692;2022-10-30T00:19:16;52.95;;;22.73;;
70818;SDS011;58439;51.046;13.692;2022-10-30T00:21:43;53.78;;;20.98;;
70818;SDS011;58439;51.046;13.692;2022-10-30T00:24:10;49.97;;;20.45;;
70818;SDS011;58439;51.046;13.692;2022-10-30T00:26:37;54.80;;;20.98;;
70818;SDS011;58439;51.046;13.692;2022-10-30T00:29:04;55.03;;;21.20;;
70818;SDS011;58439;51.046;13.692;2022-10-30T00:31:31;46.80;;;19.85;;
70818;SDS011;58439;51.046;13.692;2022-10-30T00:33:59;47.13;;;20.42;;
70818;SDS011;58439;51.046;13.692;2022-10-30T00:36:27;43.15;;;18.75;;
70818;SDS011;58439;51.046;13.692;2022-10-30T00:38:54;39.40;;;18.02;;
70818;SDS011;58439;51.046;13.692;2022-10-30T00:41:22;44.10;;;19.02;;
70818;SDS011;58439;51.046;13.692;2022-10-30T00:43:50;40.85;;;19.85;;
70818;SDS011;58439;51.046;13.692;2022-10-30T00:46:19;41.65;;;19.95;;
70818;SDS011;58439;51.046;13.692;2022-10-30T00:49:14;42.38;;;18.40;;
70818;SDS011;58439;51.046;13.692;2022-10-30T00:51:46;37.15;;;17.98;;
70818;SDS011;58439;51.046;13.692;2022-10-30T00:54:18;48.72;;;19.52;;
70818;SDS011;58439;51.046;13.692;2022-10-30T00:56:49;38.13;;;18.25;;
70818;SDS011;58439;51.046;13.692;2022-10-30T00:59:27;47.35;;;18.33;;
70818;SDS011;58439;51.046;13.692;2022-10-30T01:02:00;43.05;;;17.85;;
70818;SDS011;58439;51.046;13.692;2022-10-30T01:04:30;37.70;;;17.65;;
70818;SDS011;58439;51.046;13.692;2022-10-30T01:07:05;43.33;;;18.25;;
70818;SDS011;58439;51.046;13.692;2022-10-30T01:09:39;37.65;;;17.20;;
70818;SDS011;58439;51.046;13.692;2022-10-30T01:12:07;40.45;;;17.38;;
70818;SDS011;58439;51.046;13.692;2022-10-30T01:14:37;40.08;;;18.42;;
70818;SDS011;58439;51.046;13.692;2022-10-30T01:20:21;39.55;;;16.98;;
70818;SDS011;58439;51.046;13.692;2022-10-30T01:23:20;37.08;;;17.33;;
70818;SDS011;58439;51.046;13.692;2022-10-30T01:26:37;41.92;;;18.45;;
70818;SDS011;58439;51.046;13.692;2022-10-30T01:36:06;38.17;;;17.63;;
70818;SDS011;58439;51.046;13.692;2022-10-30T01:39:00;45.85;;;17.02;;
70818;SDS011;58439;51.046;13.692;2022-10-30T01:41:40;40.25;;;18.02;;
70818;SDS011;58439;51.046;13.692;2022-10-30T01:44:12;33.67;;;17.13;;
70818;SDS011;58439;51.046;13.692;2022-10-30T01:47:07;41.78;;;17.95;;
70818;SDS011;58439;51.046;13.692;2022-10-30T01:53:09;36.42;;;16.15;;
70818;SDS011;58439;51.046;13.692;2022-10-30T01:58:56;39.00;;;16.63;;
70818;SDS011;58439;51.046;13.692;2022-10-30T02:01:50;33.90;;;15.65;;
70818;SDS011;58439;51.046;13.692;2022-10-30T02:04:18;33.90;;;15.50;;
70818;SDS011;58439;51.046;13.692;2022-10-30T02:06:46;36.25;;;15.38;;
70818;SDS011;58439;51.046;13.692;2022-10-30T02:09:14;29.55;;;14.80;;
70818;SDS011;58439;51.046;13.692;2022-10-30T02:11:46;37.13;;;15.23;;
70818;SDS011;58439;51.046;13.692;2022-10-30T02:14:17;38.97;;;14.90;;
70818;SDS011;58439;51.046;13.692;2022-10-30T02:16:56;29.83;;;14.13;;
70818;SDS011;58439;51.046;13.692;2022-10-30T02:19:28;37.88;;;16.08;;
70818;SDS011;58439;51.046;13.692;2022-10-30T02:21:55;39.03;;;15.68;;
70818;SDS011;58439;51.046;13.692;2022-10-30T02:24:22;30.10;;;15.02;;
70818;SDS011;58439;51.046;13.692;2022-10-30T02:26:49;37.95;;;16.23;;
70818;SDS011;58439;51.046;13.692;2022-10-30T02:29:17;37.47;;;16.42;;
70818;SDS011;58439;51.046;13.692;2022-10-30T02:31:46;33.55;;;16.65;;
70818;SDS011;58439;51.046;13.692;2022-10-30T02:34:14;34.30;;;15.90;;
70818;SDS011;58439;51.046;13.692;2022-10-30T02:36:42;34.10;;;15.43;;
70818;SDS011;58439;51.046;13.692;2022-10-30T02:39:10;41.40;;;16.30;;
70818;SDS011;58439;51.046;13.692;2022-10-30T02:41:38;40.55;;;17.83;;
70818;SDS011;58439;51.046;13.692;2022-10-30T02:44:05;37.55;;;17.08;;
70818;SDS011;58439;51.046;13.692;2022-10-30T02:46:33;37.78;;;16.98;;
70818;SDS011;58439;51.046;13.692;2022-10-30T02:49:01;37.28;;;16.60;;
70818;SDS011;58439;51.046;13.692;2022-10-30T02:51:29;34.65;;;15.68;;
70818;SDS011;58439;51.046;13.692;2022-10-30T02:53:58;33.00;;;15.80;;
70818;SDS011;58439;51.046;13.692;2022-10-30T02:56:26;35.10;;;16.13;;
70818;SDS011;58439;51.046;13.692;2022-10-30T02:58:54;37.33;;;16.65;;
70818;SDS011;58439;51.046;13.692;2022-10-30T03:01:22;35.17;;;16.40;;
70818;SDS011;58439;51.046;13.692;2022-10-30T03:03:53;30.40;;;15.15;;
70818;SDS011;58439;51.046;13.692;2022-10-30T03:06:21;32.28;;;15.82;;
70818;SDS011;58439;51.046;13.692;2022-10-30T03:08:49;36.85;;;15.90;;
70818;SDS011;58439;51.046;13.692;2022-10-30T03:11:17;33.42;;;15.57;;
70818;SDS011;58439;51.046;13.692;2022-10-30T03:14:13;34.47;;;15.73;;
70818;SDS011;58439;51.046;13.692;2022-10-30T03:17:06;37.47;;;15.43;;
70818;SDS011;58439;51.046;13.692;2022-10-30T03:19:35;39.97;;;15.40;;
70818;SDS011;58439;51.046;13.692;2022-10-30T03:22:02;31.98;;;15.98;;
70818;SDS011;58439;51.046;13.692;2022-10-30T03:24:29;32.92;;;15.27;;
70818;SDS011;58439;51.046;13.692;2022-10-30T03:26:57;31.88;;;14.25;;
70818;SDS011;58439;51.046;13.692;2022-10-30T03:29:24;29.52;;;13.95;;
70818;SDS011;58439;51.046;13.692;2022-10-30T03:31:51;28.60;;;14.98;;
70818;SDS011;58439;51.046;13.692;2022-10-30T03:34:20;35.88;;;14.90;;
70818;SDS011;58439;51.046;13.692;2022-10-30T03:36:47;30.85;;;14.75;;
70818;SDS011;58439;51.046;13.692;2022-10-30T03:39:14;31.92;;;15.30;;
70818;SDS011;58439;51.046;13.692;2022-10-30T03:41:43;34.78;;;14.93;;
70818;SDS011;58439;51.046;13.692;2022-10-30T03:44:11;33.22;;;15.25;;
70818;SDS011;58439;51.046;13.692;2022-10-30T03:46:39;32.03;;;15.02;;
70818;SDS011;58439;51.046;13.692;2022-10-30T03:49:32;27.33;;;14.23;;
70818;SDS011;58439;51.046;13.692;2022-10-30T03:52:02;34.70;;;14.32;;
70818;SDS011;58439;51.046;13.692;2022-10-30T03:54:29;30.58;;;14.48;;
70818;SDS011;58439;51.046;13.692;2022-10-30T03:56:57;33.03;;;14.45;;
70818;SDS011;58439;51.046;13.692;2022-10-30T03:59:27;33.55;;;14.07;;
70818;SDS011;58439;51.046;13.692;2022-10-30T04:02:12;34.10;;;14.80;;
70818;SDS011;58439;51.046;13.692;2022-10-30T04:04:40;34.50;;;14.77;;
70818;SDS011;58439;51.046;13.692;2022-10-30T04:07:07;31.90;;;14.95;;
70818;SDS011;58439;51.046;13.692;2022-10-30T04:09:35;29.85;;;14.43;;
70818;SDS011;58439;51.046;13.692;2022-10-30T04:12:03;32.05;;;15.75;;
70818;SDS011;58439;51.046;13.692;2022-10-30T04:14:31;29.30;;;14.23;;
70818;SDS011;58439;51.046;13.692;2022-10-30T04:26:36;29.10;;;13.38;;
70818;SDS011;58439;51.046;13.692;2022-10-30T04:29:03;37.60;;;15.50;;
70818;SDS011;58439;51.046;13.692;2022-10-30T04:31:30;29.52;;;13.70;;
70818;SDS011;58439;51.046;13.692;2022-10-30T04:33:57;26.38;;;14.25;;
70818;SDS011;58439;51.046;13.692;2022-10-30T04:36:24;32.28;;;13.82;;
70818;SDS011;58439;51.046;13.692;2022-10-30T04:38:59;34.50;;;13.88;;
70818;SDS011;58439;51.046;13.692;2022-10-30T04:41:29;35.30;;;14.40;;
70818;SDS011;58439;51.046;13.692;2022-10-30T04:46:31;32.28;;;14.68;;
70818;SDS011;58439;51.046;13.692;2022-10-30T04:49:05;29.15;;;13.95;;
70818;SDS011;58439;51.046;13.692;2022-10-30T04:51:33;30.13;;;13.60;;
70818;SDS011;58439;51.046;13.692;2022-10-30T04:54:03;34.72;;;14.25;;
70818;SDS011;58439;51.046;13.692;2022-10-30T04:56:30;28.85;;;14.68;;
70818;SDS011;58439;51.046;13.692;2022-10-30T04:58:58;30.48;;;14.70;;
70818;SDS011;58439;51.046;13.692;2022-10-30T05:01:26;29.33;;;14.15;;
70818;SDS011;58439;51.046;13.692;2022-10-30T05:03:55;32.90;;;15.55;;
70818;SDS011;58439;51.046;13.692;2022-10-30T05:06:27;31.70;;;14.35;;
70818;SDS011;58439;51.046;13.692;2022-10-30T05:08:56;31.35;;;13.23;;
70818;SDS011;58439;51.046;13.692;2022-10-30T05:11:36;31.13;;;13.50;;
70818;SDS011;58439;51.046;13.692;2022-10-30T05:14:03;38.10;;;14.15;;
70818;SDS011;58439;51.046;13.692;2022-10-30T05:16:30;26.95;;;12.77;;
70818;SDS011;58439;51.046;13.692;2022-10-30T05:18:59;28.52;;;13.35;;
70818;SDS011;58439;51.046;13.692;2022-10-30T05:21:35;33.78;;;12.70;;
70818;SDS011;58439;51.046;13.692;2022-10-30T05:24:14;26.65;;;12.93;;
70818;SDS011;58439;51.046;13.692;2022-10-30T05:26:42;35.30;;;12.98;;
70818;SDS011;58439;51.046;13.692;2022-10-30T05:29:11;30.52;;;12.55;;
70818;SDS011;58439;51.046;13.692;2022-10-30T05:34:13;25.70;;;11.18;;
70818;SDS011;58439;51.046;13.692;2022-10-30T05:36:42;20.00;;;10.02;;
70818;SDS011;58439;51.046;13.692;2022-10-30T05:39:14;28.83;;;11.23;;
70818;SDS011;58439;51.046;13.692;2022-10-30T05:41:45;26.85;;;11.85;;
70818;SDS011;58439;51.046;13.692;2022-10-30T05:44:12;30.27;;;11.07;;
70818;SDS011;58439;51.046;13.692;2022-10-30T05:46:44;20.65;;;11.23;;
70818;SDS011;58439;51.046;13.692;2022-10-30T05:49:27;26.70;;;11.70;;
70818;SDS011;58439;51.046;13.692;2022-10-30T05:51:56;28.88;;;12.07;;
70818;SDS011;58439;51.046;13.692;2022-10-30T05:54:23;27.30;;;11.00;;
70818;SDS011;58439;51.046;13.692;2022-10-30T05:57:29;24.63;;;12.20;;
70818;SDS011;58439;51.046;13.692;2022-10-30T05:59:59;26.00;;;11.35;;
70818;SDS011;58439;51.046;13.692;2022-10-30T06:05:16;35.88;;;11.45;;
70818;SDS011;58439;51.046;13.692;2022-10-30T06:07:44;28.05;;;11.85;;
70818;SDS011;58439;51.046;13.692;2022-10-30T06:10:12;24.48;;;10.88;;
70818;SDS011;58439;51.046;13.692;2022-10-30T06:12:57;28.73;;;12.07;;
70818;SDS011;58439;51.046;13.692;2022-10-30T06:15:40;24.25;;;11.48;;
70818;SDS011;58439;51.046;13.692;2022-10-30T06:18:07;28.42;;;12.38;;
70818;SDS011;58439;51.046;13.692;2022-10-30T06:23:26;24.42;;;11.77;;
70818;SDS011;58439;51.046;13.692;2022-10-30T06:25:58;29.35;;;13.18;;
70818;SDS011;58439;51.046;13.692;2022-10-30T06:28:34;30.95;;;13.48;;
70818;SDS011;58439;51.046;13.692;2022-10-30T06:31:01;29.20;;;13.63;;
70818;SDS011;58439;51.046;13.692;2022-10-30T06:33:30;33.05;;;14.35;;
70818;SDS011;58439;51.046;13.692;2022-10-30T06:35:58;29.83;;;13.50;;
70818;SDS011;58439;51.046;13.692;2022-10-30T06:38:26;30.85;;;13.40;;
70818;SDS011;58439;51.046;13.692;2022-10-30T06:40:54;25.55;;;14.05;;
70818;SDS011;58439;51.046;13.692;2022-10-30T06:43:49;27.15;;;12.50;;
70818;SDS011;58439;51.046;13.692;2022-10-30T06:46:21;24.67;;;13.85;;
70818;SDS011;58439;51.046;13.692;2022-10-30T06:48:56;27.67;;;13.82;;
70818;SDS011;58439;51.046;13.692;2022-10-30T06:51:24;25.50;;;12.68;;
70818;SDS011;58439;51.046;13.692;2022-10-30T06:53:52;26.02;;;13.00;;
70818;SDS011;58439;51.046;13.692;2022-10-30T06:56:43;29.10;;;14.07;;
70818;SDS011;58439;51.046;13.692;2022-10-30T06:59:35;28.97;;;12.97;;
70818;SDS011;58439;51.046;13.692;2022-10-30T07:02:14;29.75;;;12.98;;
70818;SDS011;58439;51.046;13.692;2022-10-30T07:04:52;28.33;;;14.18;;
70818;SDS011;58439;51.046;13.692;2022-10-30T07:07:20;27.83;;;12.88;;
70818;SDS011;58439;51.046;13.692;2022-10-30T07:09:47;29.58;;;13.07;;
70818;SDS011;58439;51.046;13.692;2022-10-30T07:12:17;27.85;;;13.77;;
70818;SDS011;58439;51.046;13.692;2022-10-30T07:15:05;30.30;;;13.07;;
70818;SDS011;58439;51.046;13.692;2022-10-30T07:17:39;26.60;;;12.70;;
70818;SDS011;58439;51.046;13.692;2022-10-30T07:20:14;26.55;;;12.90;;
70818;SDS011;58439;51.046;13.692;2022-10-30T07:22:41;25.63;;;12.23;;
70818;SDS011;58439;51.046;13.692;2022-10-30T07:25:08;27.75;;;12.73;;
70818;SDS011;58439;51.046;13.692;2022-10-30T07:28:00;28.63;;;13.55;;
70818;SDS011;58439;51.046;13.692;2022-10-30T07:30:34;29.75;;;12.50;;
70818;SDS011;58439;51.046;13.692;2022-10-30T07:33:12;26.88;;;13.27;;
70818;SDS011;58439;51.046;13.692;2022-10-30T07:36:06;26.85;;;12.43;;
70818;SDS011;58439;51.046;13.692;2022-10-30T07:38:49;22.67;;;12.07;;
70818;SDS011;58439;51.046;13.692;2022-10-30T07:41:31;27.33;;;13.13;;
70818;SDS011;58439;51.046;13.692;2022-10-30T07:44:16;22.13;;;11.95;;
70818;SDS011;58439;51.046;13.692;2022-10-30T07:47:09;27.00;;;13.05;;
70818;SDS011;58439;51.046;13.692;2022-10-30T07:49:59;25.55;;;11.43;;
70818;SDS011;58439;51.046;13.692;2022-10-30T07:52:31;30.15;;;13.23;;
70818;SDS011;58439;51.046;13.692;2022-10-30T07:54:59;28.88;;;12.30;;
70818;SDS011;58439;51.046;13.692;2022-10-30T07:57:47;26.58;;;12.48;;
70818;SDS011;58439;51.046;13.692;2022-10-30T08:00:33;26.20;;;13.38;;
70818;SDS011;58439;51.046;13.692;2022-10-30T08:03:24;33.15;;;13.48;;
70818;SDS011;58439;51.046;13.692;2022-10-30T08:06:01;24.67;;;12.43;;
70818;SDS011;58439;51.046;13.692;2022-10-30T08:11:15;26.40;;;12.82;;
70818;SDS011;58439;51.046;13.692;2022-10-30T08:13:42;30.30;;;13.85;;
70818;SDS011;58439;51.046;13.692;2022-10-30T08:16:09;23.70;;;13.10;;
70818;SDS011;58439;51.046;13.692;2022-10-30T08:18:38;26.23;;;13.70;;
70818;SDS011;58439;51.046;13.692;2022-10-30T08:21:09;27.25;;;12.32;;
70818;SDS011;58439;51.046;13.692;2022-10-30T08:23:44;27.38;;;12.68;;
70818;SDS011;58439;51.046;13.692;2022-10-30T08:26:13;29.77;;;13.23;;
70818;SDS011;58439;51.046;13.692;2022-10-30T08:28:40;30.48;;;13.45;;
70818;SDS011;58439;51.046;13.692;2022-10-30T08:31:10;28.92;;;13.85;;
70818;SDS011;58439;51.046;13.692;2022-10-30T08:33:56;30.23;;;13.80;;
70818;SDS011;58439;51.046;13.692;2022-10-30T08:36:43;25.23;;;13.25;;
70818;SDS011;58439;51.046;13.692;2022-10-30T08:39:15;27.38;;;12.88;;
70818;SDS011;58439;51.046;13.692;2022-10-30T08:41:50;25.48;;;13.43;;
70818;SDS011;58439;51.046;13.692;2022-10-30T08:44:20;29.85;;;14.90;;
70818;SDS011;58439;51.046;13.692;2022-10-30T08:47:20;22.33;;;12.57;;
70818;SDS011;58439;51.046;13.692;2022-10-30T08:49:47;25.38;;;12.57;;
70818;SDS011;58439;51.046;13.692;2022-10-30T08:52:17;25.48;;;13.55;;
70818;SDS011;58439;51.046;13.692;2022-10-30T08:54:50;27.55;;;13.35;;
70818;SDS011;58439;51.046;13.692;2022-10-30T08:57:17;27.55;;;12.73;;
70818;SDS011;58439;51.046;13.692;2022-10-30T08:59:44;26.20;;;13.48;;
70818;SDS011;58439;51.046;13.692;2022-10-30T09:02:32;31.90;;;13.63;;
70818;SDS011;58439;51.046;13.692;2022-10-30T09:05:31;24.38;;;12.63;;
70818;SDS011;58439;51.046;13.692;2022-10-30T09:08:19;25.40;;;12.80;;
70818;SDS011;58439;51.046;13.692;2022-10-30T09:10:59;28.15;;;12.82;;
70818;SDS011;58439;51.046;13.692;2022-10-30T09:13:27;27.33;;;11.88;;
70818;SDS011;58439;51.046;13.692;2022-10-30T09:15:57;22.38;;;12.68;;
70818;SDS011;58439;51.046;13.692;2022-10-30T09:18:31;24.08;;;12.65;;
70818;SDS011;58439;51.046;13.692;2022-10-30T09:20:58;26.08;;;13.38;;
70818;SDS011;58439;51.046;13.692;2022-10-30T09:23:34;25.70;;;12.80;;
70818;SDS011;58439;51.046;13.692;2022-10-30T09:26:24;26.70;;;11.82;;
70818;SDS011;58439;51.046;13.692;2022-10-30T09:29:01;22.60;;;12.90;;
70818;SDS011;58439;51.046;13.692;2022-10-30T09:31:46;26.98;;;12.38;;
70818;SDS011;58439;51.046;13.692;2022-10-30T09:34:17;23.70;;;12.10;;
70818;SDS011;58439;51.046;13.692;2022-10-30T09:36:52;29.77;;;12.75;;
70818;SDS011;58439;51.046;13.692;2022-10-30T09:39:19;26.08;;;11.98;;
70818;SDS011;58439;51.046;13.692;2022-10-30T09:48:10;29.38;;;12.27;;
70818;SDS011;58439;51.046;13.692;2022-10-30T09:51:20;28.88;;;12.43;;
70818;SDS011;58439;51.046;13.692;2022-10-30T09:54:30;29.35;;;12.90;;
70818;SDS011;58439;51.046;13.692;2022-10-30T10:00:04;28.48;;;13.07;;
70818;SDS011;58439;51.046;13.692;2022-10-30T10:06:01;25.77;;;12.68;;
70818;SDS011;58439;51.046;13.692;2022-10-30T10:08:50;25.15;;;12.65;;
70818;SDS011;58439;51.046;13.692;2022-10-30T10:12:12;20.42;;;10.93;;
70818;SDS011;58439;51.046;13.692;2022-10-30T10:18:17;23.73;;;11.38;;
70818;SDS011;58439;51.046;13.692;2022-10-30T10:20:54;22.38;;;10.48;;
70818;SDS011;58439;51.046;13.692;2022-10-30T10:23:32;24.30;;;11.68;;
70818;SDS011;58439;51.046;13.692;2022-10-30T10:40:18;24.45;;;11.30;;
70818;SDS011;58439;51.046;13.692;2022-10-30T10:49:36;20.98;;;11.43;;
70818;SDS011;58439;51.046;13.692;2022-10-30T10:52:24;21.88;;;10.82;;
70818;SDS011;58439;51.046;13.692;2022-10-30T10:55:18;19.85;;;11.00;;
70818;SDS011;58439;51.046;13.692;2022-10-30T10:57:58;19.20;;;10.55;;
70818;SDS011;58439;51.046;13.692;2022-10-30T11:00:51;20.50;;;11.10;;
70818;SDS011;58439;51.046;13.692;2022-10-30T11:03:31;21.73;;;10.85;;
70818;SDS011;58439;51.046;13.692;2022-10-30T11:06:24;26.40;;;11.35;;
70818;SDS011;58439;51.046;13.692;2022-10-30T11:11:55;17.10;;;9.98;;
70818;SDS011;58439;51.046;13.692;2022-10-30T11:14:23;20.33;;;10.38;;
70818;SDS011;58439;51.046;13.692;2022-10-30T11:19:29;20.83;;;10.85;;
70818;SDS011;58439;51.046;13.692;2022-10-30T11:21:58;17.73;;;10.15;;
70818;SDS011;58439;51.046;13.692;2022-10-30T11:24:31;20.52;;;10.02;;
70818;SDS011;58439;51.046;13.692;2022-10-30T11:30:00;19.27;;;10.15;;
70818;SDS011;58439;51.046;13.692;2022-10-30T11:32:32;16.27;;;9.52;;
70818;SDS011;58439;51.046;13.692;2022-10-30T11:37:34;19.05;;;10.13;;
70818;SDS011;58439;51.046;13.692;2022-10-30T11:43:00;16.58;;;9.18;;
70818;SDS011;58439;51.046;13.692;2022-10-30T11:45:35;16.55;;;9.25;;
70818;SDS011;58439;51.046;13.692;2022-10-30T11:48:26;19.48;;;9.48;;
70818;SDS011;58439;51.046;13.692;2022-10-30T11:51:00;18.02;;;9.60;;
70818;SDS011;58439;51.046;13.692;2022-10-30T11:53:31;15.95;;;9.43;;
70818;SDS011;58439;51.046;13.692;2022-10-30T11:56:15;22.20;;;9.73;;
70818;SDS011;58439;51.046;13.692;2022-10-30T11:58:49;16.27;;;8.98;;
70818;SDS011;58439;51.046;13.692;2022-10-30T12:01:24;20.52;;;9.25;;
70818;SDS011;58439;51.046;13.692;2022-10-30T12:03:55;17.67;;;9.25;;
70818;SDS011;58439;51.046;13.692;2022-10-30T12:06:42;19.90;;;9.70;;
70818;SDS011;58439;51.046;13.692;2022-10-30T12:14:14;16.13;;;9.32;;
70818;SDS011;58439;51.046;13.692;2022-10-30T12:16:55;21.95;;;9.77;;
70818;SDS011;58439;51.046;13.692;2022-10-30T12:19:24;17.75;;;10.23;;
70818;SDS011;58439;51.046;13.692;2022-10-30T12:21:52;17.58;;;8.73;;
70818;SDS011;58439;51.046;13.692;2022-10-30T12:27:05;18.02;;;10.07;;
70818;SDS011;58439;51.046;13.692;2022-10-30T12:32:45;17.02;;;9.40;;
70818;SDS011;58439;51.046;13.692;2022-10-30T12:38:35;16.52;;;9.35;;
70818;SDS011;58439;51.046;13.692;2022-10-30T12:41:22;19.65;;;9.88;;
70818;SDS011;58439;51.046;13.692;2022-10-30T12:44:42;19.38;;;9.80;;
70818;SDS011;58439;51.046;13.692;2022-10-30T12:50:40;18.80;;;10.20;;
70818;SDS011;58439;51.046;13.692;2022-10-30T12:53:53;19.95;;;10.07;;
70818;SDS011;58439;51.046;13.692;2022-10-30T12:57:24;16.55;;;9.75;;
70818;SDS011;58439;51.046;13.692;2022-10-30T13:00:14;20.77;;;10.27;;
70818;SDS011;58439;51.046;13.692;2022-10-30T13:06:07;22.90;;;10.07;;
70818;SDS011;58439;51.046;13.692;2022-10-30T13:08:57;18.85;;;11.02;;
70818;SDS011;58439;51.046;13.692;2022-10-30T13:12:02;22.55;;;10.32;;
70818;SDS011;58439;51.046;13.692;2022-10-30T13:14:43;21.23;;;10.45;;
70818;SDS011;58439;51.046;13.692;2022-10-30T13:17:19;24.13;;;10.98;;
70818;SDS011;58439;51.046;13.692;2022-10-30T13:19:46;20.42;;;10.88;;
70818;SDS011;58439;51.046;13.692;2022-10-30T13:28:12;23.92;;;9.55;;
70818;SDS011;58439;51.046;13.692;2022-10-30T13:31:06;18.95;;;10.20;;
70818;SDS011;58439;51.046;13.692;2022-10-30T13:36:49;19.02;;;9.50;;
70818;SDS011;58439;51.046;13.692;2022-10-30T13:39:33;19.65;;;9.57;;
70818;SDS011;58439;51.046;13.692;2022-10-30T13:51:14;19.42;;;10.30;;
70818;SDS011;58439;51.046;13.692;2022-10-30T13:56:46;19.50;;;9.40;;
70818;SDS011;58439;51.046;13.692;2022-10-30T13:59:23;22.10;;;9.70;;
70818;SDS011;58439;51.046;13.692;2022-10-30T14:20:51;24.95;;;11.73;;
70818;SDS011;58439;51.046;13.692;2022-10-30T14:23:24;21.05;;;11.75;;
70818;SDS011;58439;51.046;13.692;2022-10-30T14:28:39;26.58;;;13.50;;
70818;SDS011;58439;51.046;13.692;2022-10-30T14:31:11;29.80;;;13.82;;
70818;SDS011;58439;51.046;13.692;2022-10-30T14:33:49;28.30;;;13.48;;
70818;SDS011;58439;51.046;13.692;2022-10-30T14:57:22;31.45;;;14.07;;
70818;SDS011;58439;51.046;13.692;2022-10-30T15:14:07;35.33;;;15.73;;
70818;SDS011;58439;51.046;13.692;2022-10-30T15:16:58;35.88;;;17.55;;
70818;SDS011;58439;51.046;13.692;2022-10-30T15:19:25;31.02;;;15.57;;
70818;SDS011;58439;51.046;13.692;2022-10-30T15:21:56;32.80;;;16.08;;
70818;SDS011;58439;51.046;13.692;2022-10-30T15:27:18;35.70;;;15.55;;
70818;SDS011;58439;51.046;13.692;2022-10-30T15:29:53;31.83;;;16.45;;
70818;SDS011;58439;51.046;13.692;2022-10-30T15:32:26;36.85;;;16.25;;
70818;SDS011;58439;51.046;13.692;2022-10-30T15:35:00;36.67;;;16.70;;
70818;SDS011;58439;51.046;13.692;2022-10-30T15:37:39;32.47;;;16.30;;
70818;SDS011;58439;51.046;13.692;2022-10-30T15:40:34;39.05;;;17.17;;
70818;SDS011;58439;51.046;13.692;2022-10-30T15:43:04;34.22;;;16.38;;
70818;SDS011;58439;51.046;13.692;2022-10-30T15:45:41;32.72;;;16.67;;
70818;SDS011;58439;51.046;13.692;2022-10-30T15:48:21;36.58;;;17.67;;
70818;SDS011;58439;51.046;13.692;2022-10-30T15:50:57;34.40;;;16.88;;
70818;SDS011;58439;51.046;13.692;2022-10-30T15:53:42;37.25;;;16.38;;
70818;SDS011;58439;51.046;13.692;2022-10-30T15:56:16;36.83;;;17.48;;
70818;SDS011;58439;51.046;13.692;2022-10-30T15:58:51;43.83;;;17.13;;
70818;SDS011;58439;51.046;13.692;2022-10-30T16:01:32;39.95;;;17.17;;
70818;SDS011;58439;51.046;13.692;2022-10-30T16:04:18;47.63;;;20.52;;
70818;SDS011;58439;51.046;13.692;2022-10-30T16:09:18;33.67;;;16.38;;
70818;SDS011;58439;51.046;13.692;2022-10-30T16:11:46;48.58;;;23.75;;
70818;SDS011;58439;51.046;13.692;2022-10-30T16:14:17;40.10;;;19.73;;
70818;SDS011;58439;51.046;13.692;2022-10-30T16:16:51;34.95;;;18.83;;
70818;SDS011;58439;51.046;13.692;2022-10-30T16:19:22;36.80;;;18.17;;
70818;SDS011;58439;51.046;13.692;2022-10-30T16:21:57;39.40;;;18.27;;
70818;SDS011;58439;51.046;13.692;2022-10-30T16:24:28;41.13;;;19.85;;
70818;SDS011;58439;51.046;13.692;2022-10-30T16:27:03;38.97;;;18.83;;
70818;SDS011;58439;51.046;13.692;2022-10-30T16:29:47;39.97;;;18.35;;
70818;SDS011;58439;51.046;13.692;2022-10-30T16:32:28;37.13;;;18.65;;
70818;SDS011;58439;51.046;13.692;2022-10-30T16:34:57;44.13;;;19.20;;
70818;SDS011;58439;51.046;13.692;2022-10-30T16:37:37;36.63;;;18.65;;
70818;SDS011;58439;51.046;13.692;2022-10-30T16:40:20;34.35;;;17.98;;
70818;SDS011;58439;51.046;13.692;2022-10-30T16:42:54;39.75;;;18.23;;
70818;SDS011;58439;51.046;13.692;2022-10-30T16:48:10;46.08;;;19.77;;
70818;SDS011;58439;51.046;13.692;2022-10-30T16:50:57;42.65;;;19.42;;
70818;SDS011;58439;51.046;13.692;2022-10-30T16:53:27;44.70;;;21.25;;
70818;SDS011;58439;51.046;13.692;2022-10-30T16:55:56;42.20;;;20.02;;
70818;SDS011;58439;51.046;13.692;2022-10-30T16:58:27;48.15;;;23.55;;
70818;SDS011;58439;51.046;13.692;2022-10-30T17:01:04;47.00;;;21.13;;
70818;SDS011;58439;51.046;13.692;2022-10-30T17:03:35;44.60;;;22.52;;
70818;SDS011;58439;51.046;13.692;2022-10-30T17:06:11;54.83;;;24.55;;
70818;SDS011;58439;51.046;13.692;2022-10-30T17:09:16;54.10;;;25.40;;
70818;SDS011;58439;51.046;13.692;2022-10-30T17:14:45;47.42;;;22.85;;
70818;SDS011;58439;51.046;13.692;2022-10-30T17:17:20;54.75;;;25.23;;
70818;SDS011;58439;51.046;13.692;2022-10-30T17:19:56;53.85;;;24.55;;
70818;SDS011;58439;51.046;13.692;2022-10-30T17:22:31;50.53;;;24.60;;
70818;SDS011;58439;51.046;13.692;2022-10-30T17:24:59;58.20;;;25.98;;
70818;SDS011;58439;51.046;13.692;2022-10-30T17:27:28;51.03;;;24.83;;
70818;SDS011;58439;51.046;13.692;2022-10-30T17:30:29;56.55;;;26.38;;
70818;SDS011;58439;51.046;13.692;2022-10-30T17:35:56;50.55;;;24.65;;
70818;SDS011;58439;51.046;13.692;2022-10-30T17:38:24;43.97;;;23.58;;
70818;SDS011;58439;51.046;13.692;2022-10-30T17:40:51;53.05;;;23.50;;
70818;SDS011;58439;51.046;13.692;2022-10-30T17:43:19;54.08;;;24.38;;
70818;SDS011;58439;51.046;13.692;2022-10-30T17:48:46;48.65;;;23.13;;
70818;SDS011;58439;51.046;13.692;2022-10-30T17:51:14;49.40;;;23.30;;
70818;SDS011;58439;51.046;13.692;2022-10-30T17:53:45;59.63;;;24.50;;
70818;SDS011;58439;51.046;13.692;2022-10-30T17:56:15;46.13;;;23.52;;
70818;SDS011;58439;51.046;13.692;2022-10-30T17:58:56;50.60;;;24.80;;
70818;SDS011;58439;51.046;13.692;2022-10-30T18:01:24;54.97;;;24.65;;
70818;SDS011;58439;51.046;13.692;2022-10-30T18:03:53;48.58;;;24.42;;
70818;SDS011;58439;51.046;13.692;2022-10-30T18:06:23;45.53;;;23.85;;
70818;SDS011;58439;51.046;13.692;2022-10-30T18:08:54;47.97;;;24.45;;
70818;SDS011;58439;51.046;13.692;2022-10-30T18:11:22;50.97;;;25.30;;
70818;SDS011;58439;51.046;13.692;2022-10-30T18:13:50;51.65;;;24.65;;
70818;SDS011;58439;51.046;13.692;2022-10-30T18:20:23;50.17;;;23.02;;
70818;SDS011;58439;51.046;13.692;2022-10-30T18:29:31;55.63;;;25.77;;
70818;SDS011;58439;51.046;13.692;2022-10-30T18:31:58;51.67;;;23.98;;